createdAt,value
2018-11-14T00:02:20.199Z,3.60
2018-11-14T00:05:01.708Z,3.30
2018-11-14T00:07:43.877Z,3.47
2018-11-14T00:10:28.815Z,3.10
2018-11-14T00:13:10.892Z,3.65
2018-11-14T00:15:53.251Z,3.27
2018-11-14T00:18:36.270Z,4.17
2018-11-14T00:21:18.445Z,4.10
2018-11-14T00:24:00.681Z,4.17
2018-11-14T00:26:43.039Z,3.87
2018-11-14T00:29:25.262Z,4.00
2018-11-14T00:32:06.992Z,3.17
2018-11-14T00:34:49.255Z,3.35
2018-11-14T00:37:31.773Z,3.08
2018-11-14T00:40:15.269Z,3.85
2018-11-14T00:42:57.305Z,3.33
2018-11-14T00:45:39.159Z,3.12
2018-11-14T00:48:20.872Z,3.10
2018-11-14T00:51:03.097Z,3.30
2018-11-14T00:53:46.217Z,3.12
2018-11-14T00:56:28.781Z,3.15
2018-11-14T00:59:10.820Z,3.42
2018-11-14T01:01:52.898Z,3.42
2018-11-14T01:04:35.817Z,3.80
2018-11-14T01:07:17.921Z,3.77
2018-11-14T01:10:00.023Z,2.95
2018-11-14T01:12:42.349Z,3.15
2018-11-14T01:15:24.305Z,3.80
2018-11-14T01:18:07.539Z,3.80
2018-11-14T01:20:49.279Z,3.95
2018-11-14T01:23:31.608Z,3.45
2018-11-14T01:26:13.583Z,3.90
2018-11-14T01:28:56.164Z,3.42
2018-11-14T01:31:38.267Z,3.87
2018-11-14T01:34:20.300Z,4.28
2018-11-14T01:37:02.255Z,4.00
2018-11-14T01:39:44.205Z,3.67
2018-11-14T01:42:25.864Z,3.72
2018-11-14T01:45:10.032Z,3.10
2018-11-14T01:47:52.098Z,3.80
2018-11-14T01:50:34.416Z,4.17
2018-11-14T01:53:16.487Z,3.70
2018-11-14T01:55:58.299Z,5.58
2018-11-14T01:58:40.659Z,15.48
2018-11-14T02:01:22.581Z,14.87
2018-11-14T02:04:05.111Z,5.30
2018-11-14T02:06:47.542Z,10.85
2018-11-14T02:09:29.363Z,7.87
2018-11-14T02:12:12.386Z,5.80
2018-11-14T02:14:54.459Z,3.98
2018-11-14T02:17:36.517Z,4.25
2018-11-14T02:20:18.965Z,4.30
2018-11-14T02:23:01.617Z,4.20
2018-11-14T02:25:44.096Z,4.97
2018-11-14T02:28:26.260Z,3.67
2018-11-14T02:31:08.623Z,4.37
2018-11-14T02:33:51.183Z,4.17
2018-11-14T02:36:33.640Z,4.03
2018-11-14T02:39:15.803Z,3.83
2018-11-14T02:41:57.576Z,3.77
2018-11-14T02:44:39.723Z,4.20
2018-11-14T02:47:21.545Z,4.37
2018-11-14T02:50:03.562Z,4.20
2018-11-14T02:52:45.402Z,4.30
2018-11-14T02:55:27.311Z,4.00
2018-11-14T02:58:09.103Z,3.90
2018-11-14T03:00:51.840Z,4.03
2018-11-14T03:03:33.607Z,3.85
2018-11-14T03:06:15.612Z,4.00
2018-11-14T03:08:59.008Z,3.90
2018-11-14T03:11:40.947Z,3.70
2018-11-14T03:14:23.402Z,4.28
2018-11-14T03:17:05.440Z,3.72
2018-11-14T03:19:47.707Z,3.10
2018-11-14T03:22:30.136Z,4.33
2018-11-14T03:25:13.024Z,4.12
2018-11-14T03:27:56.459Z,4.15
2018-11-14T03:30:38.429Z,4.03
2018-11-14T03:33:20.056Z,4.10
2018-11-14T03:36:07.484Z,4.45
2018-11-14T03:38:50.288Z,3.87
2018-11-14T03:41:32.381Z,3.62
2018-11-14T03:44:14.492Z,3.72
2018-11-14T03:46:56.461Z,4.12
2018-11-14T03:49:38.942Z,3.90
2018-11-14T03:52:21.360Z,3.62
2018-11-14T03:55:03.201Z,3.60
2018-11-14T03:57:45.870Z,4.20
2018-11-14T04:00:28.485Z,3.60
2018-11-14T04:03:10.597Z,4.10
2018-11-14T04:05:52.302Z,3.83
2018-11-14T04:08:34.400Z,4.10
2018-11-14T04:11:16.503Z,3.95
2018-11-14T04:13:58.061Z,3.77
2018-11-14T04:16:40.011Z,3.52
2018-11-14T04:19:22.153Z,3.33
2018-11-14T04:22:04.190Z,3.87
2018-11-14T04:24:46.119Z,3.50
2018-11-14T04:27:28.034Z,3.85
2018-11-14T04:30:13.396Z,3.70
2018-11-14T04:32:55.423Z,3.52
2018-11-14T04:35:37.379Z,3.37
2018-11-14T04:38:19.043Z,3.45
2018-11-14T04:41:01.387Z,3.92
2018-11-14T04:43:43.328Z,4.08
2018-11-14T04:46:25.593Z,3.72
2018-11-14T04:49:08.044Z,4.20
2018-11-14T04:51:50.030Z,3.25
2018-11-14T04:54:32.219Z,3.70
2018-11-14T04:57:14.361Z,3.30
2018-11-14T04:59:57.276Z,3.40
2018-11-14T05:02:39.869Z,2.77
2018-11-14T05:05:23.572Z,2.95
2018-11-14T05:08:07.514Z,3.30
2018-11-14T05:10:49.766Z,3.33
2018-11-14T05:13:31.306Z,3.08
2018-11-14T05:16:13.081Z,3.10
2018-11-14T05:18:54.804Z,3.42
2018-11-14T05:21:36.714Z,3.42
2018-11-14T05:24:25.185Z,3.67
2018-11-14T05:27:07.143Z,3.20
2018-11-14T05:29:48.817Z,2.83
2018-11-14T05:32:37.199Z,3.62
2018-11-14T05:35:19.332Z,3.70
2018-11-14T05:38:01.794Z,3.12
2018-11-14T05:40:43.499Z,3.42
2018-11-14T05:43:25.351Z,4.62
2018-11-14T05:46:07.789Z,7.80
2018-11-14T05:48:49.407Z,3.77
2018-11-14T05:51:31.874Z,3.45
2018-11-14T05:54:14.177Z,3.45
2018-11-14T05:56:56.147Z,3.58
2018-11-14T05:59:38.188Z,3.55
2018-11-14T06:02:20.286Z,4.12
2018-11-14T06:05:04.148Z,3.50
2018-11-14T06:07:45.904Z,3.92
2018-11-14T06:10:27.631Z,4.20
2018-11-14T06:13:10.295Z,3.80
2018-11-14T06:15:55.432Z,3.90
2018-11-14T06:18:37.396Z,3.87
2018-11-14T06:21:19.367Z,3.52
2018-11-14T06:24:01.876Z,4.10
2018-11-14T06:26:43.781Z,4.05
2018-11-14T06:29:25.452Z,3.90
2018-11-14T06:32:07.139Z,3.67
2018-11-14T06:34:48.814Z,3.65
2018-11-14T06:37:31.280Z,3.92
2018-11-14T06:40:13.405Z,3.85
2018-11-14T06:42:55.483Z,3.60
2018-11-14T06:45:38.712Z,3.98
2018-11-14T06:48:20.837Z,4.75
2018-11-14T06:51:03.454Z,4.12
2018-11-14T06:53:45.527Z,3.92
2018-11-14T06:56:27.654Z,7.10
2018-11-14T06:59:09.564Z,6.10
2018-11-14T07:01:51.825Z,5.42
2018-11-14T07:04:33.699Z,3.77
2018-11-14T07:07:15.784Z,4.40
2018-11-14T07:09:57.412Z,5.28
2018-11-14T07:12:40.157Z,4.17
2018-11-14T07:15:23.247Z,3.98
2018-11-14T07:18:05.598Z,4.90
2018-11-14T07:20:47.550Z,3.87
2018-11-14T07:23:29.334Z,4.22
2018-11-14T07:26:10.886Z,4.00
2018-11-14T07:28:52.618Z,4.45
2018-11-14T07:31:34.853Z,4.20
2018-11-14T07:34:17.240Z,3.47
2018-11-14T07:36:59.042Z,4.97
2018-11-14T07:39:40.952Z,3.77
2018-11-14T07:42:23.428Z,3.60
2018-11-14T07:45:07.141Z,4.47
2018-11-14T07:47:49.131Z,4.03
2018-11-14T07:50:30.919Z,3.87
2018-11-14T07:53:12.946Z,3.25
2018-11-14T07:55:55.236Z,4.17
2018-11-14T07:58:37.691Z,3.60
2018-11-14T08:01:19.671Z,4.00
2018-11-14T08:04:01.730Z,3.70
2018-11-14T08:06:43.914Z,4.12
2018-11-14T08:09:25.623Z,3.77
2018-11-14T08:12:07.674Z,4.03
2018-11-14T08:14:49.964Z,4.03
2018-11-14T08:17:31.263Z,3.63
2018-11-14T08:20:13.654Z,2.97
2018-11-14T08:22:56.031Z,3.53
2018-11-14T08:25:38.748Z,4.07
2018-11-14T08:28:20.397Z,3.50
2018-11-14T08:31:03.262Z,3.50
2018-11-14T08:33:44.925Z,3.80
2018-11-14T08:36:26.853Z,3.13
2018-11-14T08:39:09.174Z,2.70
2018-11-14T08:41:51.174Z,3.20
2018-11-14T08:44:34.197Z,2.83
2018-11-14T08:47:16.463Z,2.40
2018-11-14T08:49:58.305Z,2.90
2018-11-14T08:52:40.774Z,2.60
2018-11-14T08:55:22.293Z,3.10
2018-11-14T08:58:04.291Z,2.70
2018-11-14T09:00:45.707Z,2.70
2018-11-14T09:03:28.402Z,3.30
2018-11-14T09:06:10.237Z,2.87
2018-11-14T09:08:51.768Z,3.20
2018-11-14T09:11:33.976Z,3.20
2018-11-14T09:14:16.005Z,3.27
2018-11-14T09:16:58.144Z,6.60
2018-11-14T09:19:39.843Z,4.87
2018-11-14T09:22:21.568Z,4.20
2018-11-14T09:25:03.641Z,4.03
2018-11-14T09:27:45.984Z,4.00
2018-11-14T09:30:28.066Z,3.83
2018-11-14T09:33:10.442Z,4.03
2018-11-14T09:35:52.855Z,3.77
2018-11-14T09:38:34.919Z,3.83
2018-11-14T09:41:16.795Z,3.80
2018-11-14T09:43:58.436Z,3.90
2018-11-14T09:46:39.833Z,5.60
2018-11-14T09:49:22.013Z,4.33
2018-11-14T09:52:03.763Z,4.23
2018-11-14T09:54:45.246Z,3.97
2018-11-14T09:57:26.919Z,3.70
2018-11-14T10:00:14.638Z,3.80
2018-11-14T10:03:06.561Z,3.43
2018-11-14T10:05:48.039Z,4.00
2018-11-14T10:08:30.067Z,4.20
2018-11-14T10:11:11.916Z,3.40
2018-11-14T10:13:53.403Z,3.37
2018-11-14T10:16:34.990Z,3.93
2018-11-14T10:19:17.429Z,3.50
2018-11-14T10:21:59.531Z,3.47
2018-11-14T10:24:41.857Z,3.73
2018-11-14T10:27:23.524Z,3.43
2018-11-14T10:30:07.288Z,3.30
2018-11-14T10:32:49.078Z,3.40
2018-11-14T10:35:30.615Z,4.80
2018-11-14T10:38:12.863Z,3.83
2018-11-14T10:40:55.053Z,3.30
2018-11-14T10:43:37.050Z,3.77
2018-11-14T10:46:18.371Z,3.43
2018-11-14T10:49:00.244Z,2.80
2018-11-14T10:51:41.860Z,3.70
2018-11-14T10:54:24.234Z,3.30
2018-11-14T10:57:06.602Z,3.13
2018-11-14T10:59:48.643Z,2.87
2018-11-14T11:02:35.298Z,3.10
2018-11-14T11:05:23.553Z,2.77
2018-11-14T11:08:11.182Z,2.90
2018-11-14T11:10:58.363Z,2.80
2018-11-14T11:14:12.520Z,2.37
2018-11-14T11:17:00.029Z,2.83
2018-11-14T11:19:42.045Z,3.10
2018-11-14T11:22:23.940Z,3.10
2018-11-14T11:25:06.961Z,3.13
2018-11-14T11:27:48.891Z,3.60
2018-11-14T11:30:30.652Z,3.10
2018-11-14T11:33:12.442Z,3.00
2018-11-14T11:35:53.837Z,3.40
2018-11-14T11:38:35.726Z,2.77
2018-11-14T11:41:17.395Z,3.27
2018-11-14T11:43:59.811Z,3.20
2018-11-14T11:46:42.834Z,2.90
2018-11-14T11:49:25.198Z,3.33
2018-11-14T11:52:07.306Z,2.83
2018-11-14T11:54:48.707Z,3.33
2018-11-14T11:57:30.440Z,3.37
2018-11-14T12:00:13.655Z,3.20
2018-11-14T12:02:55.759Z,2.90
2018-11-14T12:05:38.473Z,2.90
2018-11-14T12:08:20.628Z,2.37
2018-11-14T12:11:02.449Z,2.97
2018-11-14T12:13:44.597Z,2.80
2018-11-14T12:16:26.758Z,3.07
2018-11-14T12:19:08.640Z,2.70
2018-11-14T12:21:50.212Z,2.33
2018-11-14T12:24:32.073Z,6.67
2018-11-14T12:27:13.984Z,3.03
2018-11-14T12:29:55.942Z,2.63
2018-11-14T12:32:38.447Z,3.00
2018-11-14T12:35:20.030Z,2.90
2018-11-14T12:38:01.708Z,2.57
2018-11-14T12:40:43.399Z,2.70
2018-11-14T12:43:25.215Z,2.70
2018-11-14T12:46:07.560Z,2.37
2018-11-14T12:48:49.575Z,2.10
2018-11-14T12:51:32.167Z,2.30
2018-11-14T12:54:15.328Z,2.00
2018-11-14T12:56:58.044Z,2.30
2018-11-14T12:59:39.732Z,2.20
2018-11-14T13:02:21.534Z,2.40
2018-11-14T13:05:03.836Z,2.23
2018-11-14T13:07:45.744Z,1.90
2018-11-14T13:10:27.206Z,2.10
2018-11-14T13:13:09.080Z,2.10
2018-11-14T13:15:50.601Z,2.30
2018-11-14T13:18:32.408Z,2.20
2018-11-14T13:21:14.600Z,2.30
2018-11-14T13:23:56.348Z,2.30
2018-11-14T13:26:38.537Z,1.70
2018-11-14T13:29:19.991Z,12.20
2018-11-14T13:32:02.301Z,7.67
2018-11-14T13:34:43.780Z,4.33
2018-11-14T13:37:25.282Z,14.83
2018-11-14T13:40:08.200Z,4.73
2018-11-14T13:42:49.613Z,2.33
2018-11-14T13:45:30.968Z,2.73
2018-11-14T13:48:12.716Z,2.73
2018-11-14T13:50:54.278Z,3.00
2018-11-14T13:53:36.006Z,3.17
2018-11-14T13:56:17.729Z,2.67
2018-11-14T13:58:59.214Z,2.80
2018-11-14T14:01:40.853Z,2.50
2018-11-14T14:04:22.976Z,2.50
2018-11-14T14:07:04.676Z,2.20
2018-11-14T14:09:46.360Z,2.23
2018-11-14T14:12:28.819Z,2.37
2018-11-14T14:15:16.266Z,2.77
2018-11-14T14:17:58.418Z,2.80
2018-11-14T14:20:40.627Z,3.17
2018-11-14T14:23:21.985Z,2.60
2018-11-14T14:26:04.138Z,4.23
2018-11-14T14:28:45.847Z,2.67
2018-11-14T14:31:27.852Z,3.40
2018-11-14T14:34:10.619Z,3.07
2018-11-14T14:36:52.482Z,3.20
2018-11-14T14:39:34.352Z,3.30
2018-11-14T14:42:16.333Z,2.70
2018-11-14T14:44:57.777Z,2.77
2018-11-14T14:47:40.089Z,3.10
2018-11-14T14:50:21.904Z,3.47
2018-11-14T14:53:03.962Z,2.70
2018-11-14T14:55:45.921Z,4.07
2018-11-14T14:58:27.865Z,3.90
2018-11-14T15:01:10.885Z,4.27
2018-11-14T15:03:52.444Z,4.47
2018-11-14T15:06:35.044Z,4.42
2018-11-14T15:09:16.328Z,4.90
2018-11-14T15:11:57.991Z,3.77
2018-11-14T15:14:39.891Z,5.20
2018-11-14T15:17:22.306Z,4.95
2018-11-14T15:20:05.530Z,4.58
2018-11-14T15:22:47.823Z,4.20
2018-11-14T15:25:30.708Z,5.03
2018-11-14T15:28:12.488Z,4.50
2018-11-14T15:30:54.199Z,4.60
2018-11-14T15:33:36.651Z,4.27
2018-11-14T15:36:18.944Z,4.40
2018-11-14T15:39:00.980Z,5.65
2018-11-14T15:41:42.997Z,6.05
2018-11-14T15:44:25.236Z,5.62
2018-11-14T15:47:07.120Z,5.90
2018-11-14T15:49:49.257Z,6.92
2018-11-14T15:52:31.429Z,8.10
2018-11-14T15:55:14.403Z,7.85
2018-11-14T15:57:57.147Z,7.30
2018-11-14T16:00:39.733Z,8.53
2018-11-14T16:03:22.576Z,9.30
2018-11-14T16:06:04.278Z,8.95
2018-11-14T16:08:45.923Z,10.18
2018-11-14T16:11:28.400Z,10.15
2018-11-14T16:14:10.209Z,10.00
2018-11-14T16:16:51.990Z,8.93
2018-11-14T16:19:34.095Z,8.65
2018-11-14T16:22:15.717Z,9.30
2018-11-14T16:24:58.221Z,8.03
2018-11-14T16:27:41.236Z,7.28
2018-11-14T16:30:25.253Z,7.55
2018-11-14T16:33:08.291Z,8.18
2018-11-14T16:35:50.152Z,7.70
2018-11-14T16:38:32.179Z,9.18
2018-11-14T16:41:15.235Z,9.90
2018-11-14T16:43:57.757Z,8.63
2018-11-14T16:46:39.503Z,10.38
2018-11-14T16:49:24.058Z,10.90
2018-11-14T16:52:07.697Z,12.33
2018-11-14T16:54:49.814Z,11.90
2018-11-14T16:57:32.103Z,11.30
2018-11-14T17:00:20.561Z,11.48
2018-11-14T17:03:03.118Z,12.43
2018-11-14T17:05:45.510Z,11.95
2018-11-14T17:08:27.521Z,11.35
2018-11-14T17:11:09.697Z,11.88
2018-11-14T17:13:51.490Z,10.65
2018-11-14T17:16:33.803Z,13.43
2018-11-14T17:19:16.546Z,13.25
2018-11-14T17:21:58.602Z,12.73
2018-11-14T17:24:45.440Z,14.38
2018-11-14T17:27:27.161Z,14.23
2018-11-14T17:30:13.461Z,13.25
2018-11-14T17:32:55.704Z,13.08
2018-11-14T17:35:37.404Z,13.62
2018-11-14T17:38:19.072Z,14.47
2018-11-14T17:41:01.142Z,14.03
2018-11-14T17:43:43.369Z,12.15
2018-11-14T17:46:25.767Z,13.58
2018-11-14T17:49:07.512Z,15.53
2018-11-14T17:51:49.599Z,13.88
2018-11-14T17:54:31.448Z,14.50
2018-11-14T17:57:13.505Z,15.05
2018-11-14T17:59:55.361Z,14.00
2018-11-14T18:02:36.972Z,10.95
2018-11-14T18:05:20.552Z,11.55
2018-11-14T18:08:09.208Z,13.98
2018-11-14T18:10:51.237Z,13.93
2018-11-14T18:13:33.097Z,13.98
2018-11-14T18:16:15.582Z,14.55
2018-11-14T18:18:57.467Z,13.80
2018-11-14T18:21:39.347Z,14.10
2018-11-14T18:24:21.811Z,14.85
2018-11-14T18:27:04.355Z,13.05
2018-11-14T18:29:47.006Z,12.93
2018-11-14T18:32:29.536Z,13.72
2018-11-14T18:35:13.506Z,14.93
2018-11-14T18:37:56.803Z,14.20
2018-11-14T18:40:39.296Z,13.88
2018-11-14T18:43:21.477Z,15.03
2018-11-14T18:46:04.055Z,13.10
2018-11-14T18:48:45.933Z,12.58
2018-11-14T18:51:28.131Z,12.07
2018-11-14T18:54:10.360Z,11.60
2018-11-14T18:56:52.051Z,11.10
2018-11-14T18:59:34.298Z,11.45
2018-11-14T19:02:16.939Z,11.63
2018-11-14T19:04:59.096Z,11.43
2018-11-14T19:07:41.552Z,11.57
2018-11-14T19:10:25.571Z,11.85
2018-11-14T19:13:10.645Z,11.95
2018-11-14T19:15:55.204Z,11.53
2018-11-14T19:18:39.760Z,11.18
2018-11-14T19:21:24.467Z,11.03
2018-11-14T19:24:08.720Z,11.28
2018-11-14T19:26:56.220Z,12.73
2018-11-14T19:29:39.968Z,12.10
2018-11-14T19:32:24.434Z,11.95
2018-11-14T19:35:11.459Z,12.03
2018-11-14T19:37:56.608Z,12.93
2018-11-14T19:40:41.682Z,12.75
2018-11-14T19:43:24.981Z,12.65
2018-11-14T19:46:12.088Z,13.05
2018-11-14T19:48:56.275Z,11.25
2018-11-14T19:51:38.492Z,13.15
2018-11-14T19:54:24.645Z,12.65
2018-11-14T19:57:07.505Z,12.47
2018-11-14T19:59:49.718Z,13.05
2018-11-14T20:02:32.124Z,13.48
2018-11-14T20:05:14.829Z,13.98
2018-11-14T20:08:03.737Z,14.00
2018-11-14T20:10:47.580Z,14.85
2018-11-14T20:13:30.927Z,13.80
2018-11-14T20:16:13.095Z,14.98
2018-11-14T20:18:58.140Z,15.20
2018-11-14T20:21:40.192Z,14.95
2018-11-14T20:24:22.010Z,14.60
2018-11-14T20:27:04.616Z,15.28
2018-11-14T20:29:47.380Z,15.43
2018-11-14T20:32:30.003Z,14.50
2018-11-14T20:35:15.604Z,14.93
2018-11-14T20:37:59.864Z,13.50
2018-11-14T20:40:43.999Z,14.18
2018-11-14T20:43:26.038Z,15.63
2018-11-14T20:46:08.191Z,14.90
2018-11-14T20:48:51.041Z,14.05
2018-11-14T20:51:35.926Z,14.50
2018-11-14T20:54:18.886Z,14.65
2018-11-14T20:57:01.642Z,13.93
2018-11-14T20:59:43.435Z,14.33
2018-11-14T21:02:26.364Z,13.80
2018-11-14T21:05:09.897Z,14.18
2018-11-14T21:07:53.124Z,12.82
2018-11-14T21:10:35.697Z,12.82
2018-11-14T21:13:18.755Z,12.43
2018-11-14T21:16:00.167Z,12.85
2018-11-14T21:18:41.836Z,14.35
2018-11-14T21:21:23.833Z,13.85
2018-11-14T21:24:06.408Z,13.65
2018-11-14T21:26:50.743Z,13.88
2018-11-14T21:29:34.532Z,14.40
2018-11-14T21:32:17.513Z,12.10
2018-11-14T21:34:59.515Z,11.90
2018-11-14T21:37:43.133Z,13.13
2018-11-14T21:40:26.776Z,12.80
2018-11-14T21:43:09.082Z,13.38
2018-11-14T21:45:51.944Z,15.58
2018-11-14T21:48:34.628Z,16.25
2018-11-14T21:51:16.977Z,16.35
2018-11-14T21:53:58.779Z,14.73
2018-11-14T21:56:40.548Z,13.90
2018-11-14T21:59:23.072Z,11.73
2018-11-14T22:02:11.678Z,19.45
2018-11-14T22:04:53.486Z,16.87
2018-11-14T22:07:35.830Z,16.65
2018-11-14T22:10:19.928Z,15.30
2018-11-14T22:13:01.840Z,13.13
2018-11-14T22:15:44.564Z,14.05
2018-11-14T22:18:26.931Z,14.18
2018-11-14T22:21:10.303Z,14.80
2018-11-14T22:23:52.056Z,19.27
2018-11-14T22:26:37.841Z,19.40
2018-11-14T22:29:20.564Z,17.70
2018-11-14T22:32:02.460Z,17.10
2018-11-14T22:34:44.203Z,16.48
2018-11-14T22:37:26.153Z,13.75
2018-11-14T22:40:13.215Z,18.32
2018-11-14T22:42:56.278Z,23.25
2018-11-14T22:45:38.048Z,32.67
2018-11-14T22:48:20.184Z,25.90
2018-11-14T22:51:01.863Z,13.18
2018-11-14T22:53:43.639Z,12.98
2018-11-14T22:56:25.462Z,12.93
2018-11-14T22:59:08.498Z,12.20
2018-11-14T23:01:50.444Z,12.95
2018-11-14T23:04:32.450Z,12.88
2018-11-14T23:07:14.440Z,12.33
2018-11-14T23:09:56.313Z,12.13
2018-11-14T23:12:38.883Z,12.40
2018-11-14T23:15:21.264Z,12.50
2018-11-14T23:18:03.177Z,13.22
2018-11-14T23:20:45.227Z,13.00
2018-11-14T23:23:27.232Z,12.10
2018-11-14T23:26:09.588Z,12.88
2018-11-14T23:28:51.948Z,11.90
2018-11-14T23:31:33.557Z,11.97
2018-11-14T23:34:15.747Z,11.63
2018-11-14T23:36:57.807Z,10.90
2018-11-14T23:39:39.838Z,11.18
2018-11-14T23:42:21.991Z,12.35
2018-11-14T23:45:03.808Z,12.73
2018-11-14T23:47:46.558Z,11.80
2018-11-14T23:50:32.989Z,11.50
2018-11-14T23:53:15.412Z,12.10
2018-11-14T23:55:57.071Z,11.90
2018-11-14T23:58:38.840Z,11.70
